createdAt,value
2022-11-27T00:27:08.451Z,99530.17
2022-11-27T00:33:51.297Z,99532.71
2022-11-27T00:40:14.731Z,99537.60
2022-11-27T00:46:58.292Z,99538.41
2022-11-27T00:53:41.198Z,99538.98
2022-11-27T01:00:24.305Z,99537.42
2022-11-27T01:07:06.888Z,99536.00
2022-11-27T01:13:49.678Z,99535.31
2022-11-27T01:20:32.607Z,99539.11
2022-11-27T01:27:15.116Z,99541.91
2022-11-27T01:33:58.285Z,99534.23
2022-11-27T01:40:41.550Z,99529.52
2022-11-27T01:47:23.407Z,99532.79
2022-11-27T01:54:07.346Z,99535.20
2022-11-27T02:00:54.957Z,99532.77
2022-11-27T02:07:40.329Z,99534.70
2022-11-27T02:14:50.140Z,99534.36
2022-11-27T02:21:42.149Z,99534.51
2022-11-27T02:28:45.405Z,99539.40
2022-11-27T02:42:36.180Z,99538.20
2022-11-27T02:49:28.695Z,99543.84
2022-11-27T02:56:11.992Z,99541.61
2022-11-27T03:02:55.461Z,99542.42
2022-11-27T03:09:43.664Z,99546.51
2022-11-27T03:16:29.205Z,99546.48
2022-11-27T03:23:12.524Z,99550.58
2022-11-27T03:29:55.578Z,99552.20
2022-11-27T03:36:38.542Z,99551.17
2022-11-27T03:43:31.165Z,99540.17
2022-11-27T03:50:11.133Z,99538.00
2022-11-27T03:56:54.502Z,99546.08
2022-11-27T04:03:49.494Z,99546.09
2022-11-27T04:10:34.253Z,99546.59
2022-11-27T04:17:18.912Z,99544.82
2022-11-27T04:24:01.827Z,99541.85
2022-11-27T04:30:44.929Z,99549.15
2022-11-27T04:37:28.172Z,99546.45
2022-11-27T04:44:11.624Z,99546.34
2022-11-27T04:50:54.877Z,99548.08
2022-11-27T04:57:38.664Z,99551.65
2022-11-27T08:25:24.268Z,99561.33
2022-11-27T08:31:08.484Z,99573.12
2022-11-27T08:36:36.206Z,99563.58
2022-11-27T08:42:59.679Z,99563.77
2022-11-27T08:49:46.178Z,99568.65
2022-11-27T08:56:34.211Z,99559.01
2022-11-27T09:03:22.535Z,99559.35
2022-11-27T09:10:05.612Z,99557.19
2022-11-27T09:16:29.795Z,99558.84
2022-11-27T09:23:14.461Z,99557.48
2022-11-27T09:29:37.828Z,99563.27
2022-11-27T09:35:22.806Z,99558.83
2022-11-27T09:41:40.715Z,99560.17
2022-11-27T09:48:12.411Z,99559.27
2022-11-27T09:55:01.649Z,99552.96
2022-11-27T10:01:53.925Z,99545.32
2022-11-27T10:08:51.803Z,99537.23
2022-11-27T10:15:38.123Z,99528.86
2022-11-27T10:22:30.163Z,99521.80
2022-11-27T10:29:22.037Z,99520.80
2022-11-27T10:36:05.440Z,99508.21
2022-11-27T10:42:52.080Z,99499.14
2022-11-27T10:49:35.469Z,99486.91
2022-11-27T10:56:27.676Z,99477.71
2022-11-27T11:03:28.574Z,99482.40
2022-11-27T11:10:15.707Z,99480.36
2022-11-27T11:17:04.591Z,99485.74
2022-11-27T11:23:47.739Z,99476.09
2022-11-27T11:30:33.861Z,99469.59
2022-11-27T11:37:17.036Z,99467.56
2022-11-27T11:44:08.988Z,99458.40
2022-11-27T11:50:51.624Z,99448.57
2022-11-27T11:57:34.537Z,99441.33
2022-11-27T12:04:23.483Z,99433.17
2022-11-27T12:11:26.401Z,99431.16
2022-11-27T12:44:10.587Z,99410.83
2022-11-27T12:50:20.765Z,99411.92
2022-11-27T12:56:43.498Z,99407.63
2022-11-27T13:03:19.286Z,99408.15
2022-11-27T13:09:59.202Z,99409.60
2022-11-27T13:16:15.770Z,99406.42
2022-11-27T13:23:00.932Z,99408.52
2022-11-27T13:29:47.306Z,99407.70
2022-11-27T13:35:42.755Z,99407.24
2022-11-27T13:42:05.528Z,99404.72
2022-11-27T13:48:47.693Z,99408.80
2022-11-27T13:55:18.945Z,99407.45
2022-11-27T14:00:46.786Z,99406.95
2022-11-27T14:06:28.281Z,99406.95
2022-11-27T14:11:58.255Z,99397.93
2022-11-27T14:18:27.498Z,99400.02
2022-11-27T14:25:19.744Z,99394.77
2022-11-27T14:31:09.518Z,99398.40
2022-11-27T14:38:01.878Z,99399.49
2022-11-27T14:44:45.348Z,99395.94
2022-11-27T14:51:29.511Z,99397.46
2022-11-27T14:58:17.642Z,99392.96
2022-11-27T15:05:09.223Z,99395.57
2022-11-27T15:11:56.876Z,99388.99
2022-11-27T15:18:04.919Z,99381.86
2022-11-27T15:25:00.239Z,99373.29
2022-11-27T15:31:44.378Z,99367.11
2022-11-27T15:38:32.603Z,99360.25
2022-11-27T15:44:43.008Z,99351.63
2022-11-27T15:51:06.847Z,99351.61
2022-11-27T15:56:49.615Z,99347.89
2022-11-27T16:02:39.920Z,99344.00
2022-11-27T16:08:50.011Z,99340.23
2022-11-27T16:14:20.530Z,99341.05
2022-11-27T16:20:06.020Z,99333.88
2022-11-27T16:25:33.540Z,99327.70
2022-11-27T16:31:03.021Z,99326.89
2022-11-27T16:37:06.385Z,99320.55
2022-11-27T16:42:34.808Z,99311.23
2022-11-27T16:48:19.895Z,99310.48
2022-11-27T16:53:57.471Z,99303.95
2022-11-27T16:59:47.365Z,99300.48
2022-11-27T17:05:18.207Z,99302.31
2022-11-27T17:11:20.762Z,99302.09
2022-11-27T17:17:29.850Z,99300.02
2022-11-27T17:23:17.257Z,99293.41
2022-11-27T17:28:41.029Z,99290.39
2022-11-27T17:34:47.196Z,99284.61
2022-11-27T17:40:35.596Z,99284.86
2022-11-27T17:46:18.586Z,99281.96
2022-11-27T17:52:42.256Z,99282.68
2022-11-27T17:59:05.606Z,99274.38
2022-11-27T18:05:48.777Z,99273.58
2022-11-27T18:12:32.128Z,99274.95
2022-11-27T18:19:15.513Z,99273.77
2022-11-27T18:25:58.424Z,99274.69
2022-11-27T18:32:41.765Z,99274.52
2022-11-27T18:39:24.761Z,99262.89
2022-11-27T18:46:08.016Z,99252.23
2022-11-27T18:52:51.588Z,99245.40
2022-11-27T18:59:34.777Z,99232.04
2022-11-27T19:06:17.730Z,99225.01
2022-11-27T19:12:26.018Z,99230.65
2022-11-27T19:18:52.676Z,99214.27
2022-11-27T19:24:23.864Z,99201.89
2022-11-27T19:30:51.697Z,99205.61
2022-11-27T19:36:57.462Z,99192.52
2022-11-27T19:42:43.369Z,99198.04
2022-11-27T19:49:07.262Z,99193.06
2022-11-27T19:55:50.814Z,99190.73
2022-11-27T20:02:12.731Z,99187.43
2022-11-27T20:08:13.550Z,99189.27
2022-11-27T20:13:45.908Z,99189.88
2022-11-27T20:20:11.543Z,99191.62
2022-11-27T20:26:20.048Z,99190.20
2022-11-27T20:32:43.767Z,99187.20
2022-11-27T20:38:59.899Z,99190.41
2022-11-27T20:45:25.593Z,99181.68
2022-11-27T20:51:02.411Z,99186.45
2022-11-27T20:57:45.522Z,99179.92
2022-11-27T21:04:31.430Z,99173.32
2022-11-27T21:11:14.616Z,99172.86
2022-11-27T21:17:58.647Z,99173.54
2022-11-27T21:24:42.333Z,99167.57
2022-11-27T21:31:25.712Z,99166.41
2022-11-27T21:38:08.600Z,99152.61
2022-11-27T21:44:15.780Z,99145.73
2022-11-27T21:50:31.373Z,99129.66
2022-11-27T21:56:54.596Z,99120.67
2022-11-27T22:03:42.591Z,99096.67
2022-11-27T22:09:53.927Z,99087.30
2022-11-27T22:15:38.950Z,99083.89
2022-11-27T22:27:48.080Z,99076.62
2022-11-27T22:33:31.426Z,99077.63
2022-11-27T22:39:57.184Z,99070.05
2022-11-27T22:46:44.633Z,99067.36
2022-11-27T22:53:28.184Z,99076.66
2022-11-27T23:00:12.414Z,99073.79
2022-11-27T23:06:56.540Z,99073.63
2022-11-27T23:13:39.631Z,99074.95
2022-11-27T23:20:25.190Z,99068.18
2022-11-27T23:27:08.272Z,99069.11
2022-11-27T23:33:51.507Z,99065.08
2022-11-27T23:40:35.519Z,99071.74
2022-11-27T23:47:18.660Z,99078.14
2022-11-27T23:54:02.944Z,99070.20
